sensor_id;sensor_type;location;lat;lon;timestamp;P1;durP1;ratioP1;P2;durP2;ratioP2
28760;SDS011;15917;50.014;8.352;2023-08-30T00:02:18;5.55;;;2.60;;
28760;SDS011;15917;50.014;8.352;2023-08-30T00:04:43;6.22;;;2.80;;
28760;SDS011;15917;50.014;8.352;2023-08-30T00:07:09;6.20;;;3.00;;
28760;SDS011;15917;50.014;8.352;2023-08-30T00:09:35;4.85;;;2.70;;
28760;SDS011;15917;50.014;8.352;2023-08-30T00:12:01;5.43;;;2.90;;
28760;SDS011;15917;50.014;8.352;2023-08-30T00:14:28;4.75;;;3.13;;
28760;SDS011;15917;50.014;8.352;2023-08-30T00:16:53;5.80;;;3.00;;
28760;SDS011;15917;50.014;8.352;2023-08-30T00:19:19;9.80;;;3.40;;
28760;SDS011;15917;50.014;8.352;2023-08-30T00:21:45;4.75;;;2.63;;
28760;SDS011;15917;50.014;8.352;2023-08-30T00:24:11;4.03;;;2.60;;
28760;SDS011;15917;50.014;8.352;2023-08-30T00:26:37;4.68;;;2.83;;
28760;SDS011;15917;50.014;8.352;2023-08-30T00:29:04;8.25;;;2.88;;
28760;SDS011;15917;50.014;8.352;2023-08-30T00:31:29;6.40;;;4.53;;
28760;SDS011;15917;50.014;8.352;2023-08-30T00:33:55;8.77;;;3.15;;
28760;SDS011;15917;50.014;8.352;2023-08-30T00:36:21;6.57;;;3.40;;
28760;SDS011;15917;50.014;8.352;2023-08-30T00:38:47;8.70;;;3.70;;
28760;SDS011;15917;50.014;8.352;2023-08-30T00:41:12;7.07;;;3.72;;
28760;SDS011;15917;50.014;8.352;2023-08-30T00:43:38;5.68;;;3.67;;
28760;SDS011;15917;50.014;8.352;2023-08-30T00:46:04;10.38;;;3.88;;
28760;SDS011;15917;50.014;8.352;2023-08-30T00:48:29;9.65;;;3.75;;
28760;SDS011;15917;50.014;8.352;2023-08-30T00:50:55;8.48;;;4.28;;
28760;SDS011;15917;50.014;8.352;2023-08-30T00:53:22;15.45;;;4.30;;
28760;SDS011;15917;50.014;8.352;2023-08-30T00:55:47;10.25;;;4.65;;
28760;SDS011;15917;50.014;8.352;2023-08-30T00:58:13;10.07;;;4.93;;
28760;SDS011;15917;50.014;8.352;2023-08-30T01:00:39;6.15;;;4.18;;
28760;SDS011;15917;50.014;8.352;2023-08-30T01:03:05;8.50;;;4.97;;
28760;SDS011;15917;50.014;8.352;2023-08-30T01:05:32;14.93;;;5.22;;
28760;SDS011;15917;50.014;8.352;2023-08-30T01:07:58;9.88;;;5.40;;
28760;SDS011;15917;50.014;8.352;2023-08-30T01:10:30;8.93;;;4.95;;
28760;SDS011;15917;50.014;8.352;2023-08-30T01:13:08;8.73;;;5.45;;
28760;SDS011;15917;50.014;8.352;2023-08-30T01:15:38;11.25;;;6.10;;
28760;SDS011;15917;50.014;8.352;2023-08-30T01:18:04;17.40;;;5.82;;
28760;SDS011;15917;50.014;8.352;2023-08-30T01:23:03;9.27;;;6.13;;
28760;SDS011;15917;50.014;8.352;2023-08-30T01:26:06;7.22;;;5.25;;
28760;SDS011;15917;50.014;8.352;2023-08-30T01:28:39;8.48;;;5.22;;
28760;SDS011;15917;50.014;8.352;2023-08-30T01:31:06;9.15;;;4.75;;
28760;SDS011;15917;50.014;8.352;2023-08-30T01:33:34;8.77;;;4.75;;
28760;SDS011;15917;50.014;8.352;2023-08-30T01:36:01;11.00;;;4.43;;
28760;SDS011;15917;50.014;8.352;2023-08-30T01:38:29;8.70;;;3.42;;
28760;SDS011;15917;50.014;8.352;2023-08-30T01:40:57;6.38;;;3.70;;
28760;SDS011;15917;50.014;8.352;2023-08-30T01:45:51;4.28;;;3.33;;
28760;SDS011;15917;50.014;8.352;2023-08-30T01:48:18;8.25;;;3.25;;
28760;SDS011;15917;50.014;8.352;2023-08-30T01:50:46;4.68;;;3.10;;
28760;SDS011;15917;50.014;8.352;2023-08-30T01:53:12;6.47;;;3.72;;
28760;SDS011;15917;50.014;8.352;2023-08-30T01:55:39;7.30;;;3.58;;
28760;SDS011;15917;50.014;8.352;2023-08-30T01:58:05;8.45;;;3.67;;
28760;SDS011;15917;50.014;8.352;2023-08-30T02:00:31;8.15;;;3.75;;
28760;SDS011;15917;50.014;8.352;2023-08-30T02:02:57;6.72;;;3.42;;
28760;SDS011;15917;50.014;8.352;2023-08-30T02:05:23;11.20;;;3.75;;
28760;SDS011;15917;50.014;8.352;2023-08-30T02:07:51;7.68;;;3.95;;
28760;SDS011;15917;50.014;8.352;2023-08-30T02:10:33;7.28;;;3.85;;
28760;SDS011;15917;50.014;8.352;2023-08-30T02:13:03;9.93;;;4.20;;
28760;SDS011;15917;50.014;8.352;2023-08-30T02:15:30;14.98;;;4.35;;
28760;SDS011;15917;50.014;8.352;2023-08-30T02:17:58;9.25;;;3.67;;
28760;SDS011;15917;50.014;8.352;2023-08-30T02:20:24;6.55;;;3.45;;
28760;SDS011;15917;50.014;8.352;2023-08-30T02:22:50;7.07;;;3.50;;
28760;SDS011;15917;50.014;8.352;2023-08-30T02:25:16;9.38;;;3.65;;
28760;SDS011;15917;50.014;8.352;2023-08-30T02:27:42;4.93;;;3.40;;
28760;SDS011;15917;50.014;8.352;2023-08-30T02:30:07;13.27;;;3.85;;
28760;SDS011;15917;50.014;8.352;2023-08-30T02:32:33;9.93;;;4.10;;
28760;SDS011;15917;50.014;8.352;2023-08-30T02:34:59;10.43;;;3.42;;
28760;SDS011;15917;50.014;8.352;2023-08-30T02:37:25;6.03;;;3.00;;
28760;SDS011;15917;50.014;8.352;2023-08-30T02:39:51;7.10;;;3.20;;
28760;SDS011;15917;50.014;8.352;2023-08-30T02:42:16;4.57;;;3.10;;
28760;SDS011;15917;50.014;8.352;2023-08-30T02:44:42;7.32;;;3.15;;
28760;SDS011;15917;50.014;8.352;2023-08-30T02:47:08;6.32;;;3.78;;
28760;SDS011;15917;50.014;8.352;2023-08-30T02:49:33;6.68;;;3.28;;
28760;SDS011;15917;50.014;8.352;2023-08-30T02:51:59;8.02;;;3.75;;
28760;SDS011;15917;50.014;8.352;2023-08-30T02:54:25;6.57;;;3.58;;
28760;SDS011;15917;50.014;8.352;2023-08-30T02:56:50;6.75;;;3.78;;
28760;SDS011;15917;50.014;8.352;2023-08-30T02:59:16;10.35;;;4.13;;
28760;SDS011;15917;50.014;8.352;2023-08-30T03:01:43;6.53;;;4.53;;
28760;SDS011;15917;50.014;8.352;2023-08-30T03:04:10;4.38;;;3.97;;
28760;SDS011;15917;50.014;8.352;2023-08-30T03:06:36;14.00;;;4.60;;
28760;SDS011;15917;50.014;8.352;2023-08-30T03:09:02;9.30;;;4.57;;
28760;SDS011;15917;50.014;8.352;2023-08-30T03:11:31;8.02;;;4.63;;
28760;SDS011;15917;50.014;8.352;2023-08-30T03:13:57;8.60;;;4.60;;
28760;SDS011;15917;50.014;8.352;2023-08-30T03:16:23;8.68;;;4.82;;
28760;SDS011;15917;50.014;8.352;2023-08-30T03:18:49;11.95;;;5.30;;
28760;SDS011;15917;50.014;8.352;2023-08-30T03:21:15;12.90;;;4.65;;
28760;SDS011;15917;50.014;8.352;2023-08-30T03:23:41;7.75;;;4.85;;
28760;SDS011;15917;50.014;8.352;2023-08-30T03:26:09;7.20;;;4.05;;
28760;SDS011;15917;50.014;8.352;2023-08-30T03:28:35;6.72;;;4.50;;
28760;SDS011;15917;50.014;8.352;2023-08-30T03:31:01;12.68;;;4.80;;
28760;SDS011;15917;50.014;8.352;2023-08-30T03:33:27;6.82;;;4.07;;
28760;SDS011;15917;50.014;8.352;2023-08-30T03:35:52;11.82;;;4.78;;
28760;SDS011;15917;50.014;8.352;2023-08-30T03:38:18;7.72;;;4.82;;
28760;SDS011;15917;50.014;8.352;2023-08-30T03:40:44;9.70;;;4.50;;
28760;SDS011;15917;50.014;8.352;2023-08-30T03:43:09;5.47;;;4.55;;
28760;SDS011;15917;50.014;8.352;2023-08-30T03:45:36;12.88;;;4.80;;
28760;SDS011;15917;50.014;8.352;2023-08-30T03:48:03;7.78;;;4.28;;
28760;SDS011;15917;50.014;8.352;2023-08-30T03:50:29;15.13;;;5.33;;
28760;SDS011;15917;50.014;8.352;2023-08-30T03:52:55;14.75;;;4.43;;
28760;SDS011;15917;50.014;8.352;2023-08-30T03:55:21;12.15;;;4.70;;
28760;SDS011;15917;50.014;8.352;2023-08-30T03:57:47;14.50;;;4.28;;
28760;SDS011;15917;50.014;8.352;2023-08-30T04:00:13;8.18;;;4.20;;
28760;SDS011;15917;50.014;8.352;2023-08-30T04:02:39;7.20;;;3.97;;
28760;SDS011;15917;50.014;8.352;2023-08-30T04:05:05;8.18;;;3.90;;
28760;SDS011;15917;50.014;8.352;2023-08-30T04:07:33;8.65;;;4.78;;
28760;SDS011;15917;50.014;8.352;2023-08-30T04:10:00;12.02;;;4.32;;
28760;SDS011;15917;50.014;8.352;2023-08-30T04:12:27;9.53;;;4.07;;
28760;SDS011;15917;50.014;8.352;2023-08-30T04:14:53;7.68;;;4.07;;
28760;SDS011;15917;50.014;8.352;2023-08-30T04:17:19;7.70;;;4.07;;
28760;SDS011;15917;50.014;8.352;2023-08-30T04:19:44;7.50;;;4.13;;
28760;SDS011;15917;50.014;8.352;2023-08-30T04:22:10;9.15;;;3.85;;
28760;SDS011;15917;50.014;8.352;2023-08-30T04:24:36;5.57;;;4.15;;
28760;SDS011;15917;50.014;8.352;2023-08-30T04:27:01;8.32;;;3.63;;
28760;SDS011;15917;50.014;8.352;2023-08-30T04:29:27;6.53;;;3.90;;
28760;SDS011;15917;50.014;8.352;2023-08-30T04:31:53;10.13;;;4.15;;
28760;SDS011;15917;50.014;8.352;2023-08-30T04:34:20;7.30;;;4.40;;
28760;SDS011;15917;50.014;8.352;2023-08-30T04:36:47;5.97;;;4.63;;
28760;SDS011;15917;50.014;8.352;2023-08-30T04:39:13;11.93;;;4.60;;
28760;SDS011;15917;50.014;8.352;2023-08-30T04:41:39;13.52;;;4.82;;
28760;SDS011;15917;50.014;8.352;2023-08-30T04:44:04;10.70;;;5.63;;
28760;SDS011;15917;50.014;8.352;2023-08-30T04:46:30;10.32;;;4.20;;
28760;SDS011;15917;50.014;8.352;2023-08-30T04:48:55;8.43;;;3.72;;
28760;SDS011;15917;50.014;8.352;2023-08-30T04:51:21;6.88;;;3.92;;
28760;SDS011;15917;50.014;8.352;2023-08-30T04:53:47;12.77;;;3.58;;
28760;SDS011;15917;50.014;8.352;2023-08-30T04:56:13;12.73;;;3.38;;
28760;SDS011;15917;50.014;8.352;2023-08-30T04:58:39;6.95;;;3.78;;
28760;SDS011;15917;50.014;8.352;2023-08-30T05:01:07;11.18;;;3.55;;
28760;SDS011;15917;50.014;8.352;2023-08-30T05:03:34;6.10;;;3.50;;
28760;SDS011;15917;50.014;8.352;2023-08-30T05:06:00;6.63;;;3.30;;
28760;SDS011;15917;50.014;8.352;2023-08-30T05:08:27;12.37;;;3.87;;
28760;SDS011;15917;50.014;8.352;2023-08-30T05:10:54;7.88;;;3.83;;
28760;SDS011;15917;50.014;8.352;2023-08-30T05:13:45;8.52;;;4.10;;
28760;SDS011;15917;50.014;8.352;2023-08-30T05:16:36;9.95;;;4.75;;
28760;SDS011;15917;50.014;8.352;2023-08-30T05:19:27;22.13;;;4.68;;
28760;SDS011;15917;50.014;8.352;2023-08-30T05:22:18;12.65;;;4.40;;
28760;SDS011;15917;50.014;8.352;2023-08-30T05:25:08;12.40;;;4.60;;
28760;SDS011;15917;50.014;8.352;2023-08-30T05:28:00;8.70;;;4.93;;
28760;SDS011;15917;50.014;8.352;2023-08-30T05:30:51;5.85;;;4.57;;
28760;SDS011;15917;50.014;8.352;2023-08-30T05:33:42;11.68;;;5.13;;
28760;SDS011;15917;50.014;8.352;2023-08-30T05:36:33;11.05;;;5.00;;
28760;SDS011;15917;50.014;8.352;2023-08-30T05:39:24;10.35;;;5.25;;
28760;SDS011;15917;50.014;8.352;2023-08-30T05:42:15;12.05;;;5.53;;
28760;SDS011;15917;50.014;8.352;2023-08-30T05:45:06;16.65;;;6.55;;
28760;SDS011;15917;50.014;8.352;2023-08-30T05:47:58;11.15;;;6.22;;
28760;SDS011;15917;50.014;8.352;2023-08-30T05:50:49;19.45;;;6.70;;
28760;SDS011;15917;50.014;8.352;2023-08-30T05:53:40;13.77;;;6.47;;
28760;SDS011;15917;50.014;8.352;2023-08-30T05:56:31;17.60;;;7.05;;
28760;SDS011;15917;50.014;8.352;2023-08-30T05:59:22;14.82;;;7.43;;
28760;SDS011;15917;50.014;8.352;2023-08-30T06:02:13;11.85;;;6.97;;
28760;SDS011;15917;50.014;8.352;2023-08-30T06:05:04;12.25;;;7.53;;
28760;SDS011;15917;50.014;8.352;2023-08-30T06:07:30;12.95;;;6.45;;
28760;SDS011;15917;50.014;8.352;2023-08-30T06:09:56;14.52;;;6.93;;
28760;SDS011;15917;50.014;8.352;2023-08-30T06:12:21;10.77;;;6.22;;
28760;SDS011;15917;50.014;8.352;2023-08-30T06:14:47;10.55;;;5.68;;
28760;SDS011;15917;50.014;8.352;2023-08-30T06:17:17;18.60;;;6.72;;
28760;SDS011;15917;50.014;8.352;2023-08-30T06:19:44;12.40;;;7.25;;
28760;SDS011;15917;50.014;8.352;2023-08-30T06:22:11;19.83;;;7.03;;
28760;SDS011;15917;50.014;8.352;2023-08-30T06:24:40;11.00;;;6.95;;
28760;SDS011;15917;50.014;8.352;2023-08-30T06:27:05;15.48;;;7.53;;
28760;SDS011;15917;50.014;8.352;2023-08-30T06:29:31;12.82;;;6.05;;
28760;SDS011;15917;50.014;8.352;2023-08-30T06:31:57;11.13;;;7.25;;
28760;SDS011;15917;50.014;8.352;2023-08-30T06:34:23;18.80;;;6.95;;
28760;SDS011;15917;50.014;8.352;2023-08-30T06:36:49;11.70;;;7.22;;
28760;SDS011;15917;50.014;8.352;2023-08-30T06:39:15;10.85;;;7.07;;
28760;SDS011;15917;50.014;8.352;2023-08-30T06:41:42;9.70;;;6.63;;
28760;SDS011;15917;50.014;8.352;2023-08-30T06:44:07;10.55;;;6.60;;
28760;SDS011;15917;50.014;8.352;2023-08-30T06:46:33;10.60;;;6.95;;
28760;SDS011;15917;50.014;8.352;2023-08-30T06:48:59;18.30;;;6.68;;
28760;SDS011;15917;50.014;8.352;2023-08-30T06:51:24;12.93;;;7.18;;
28760;SDS011;15917;50.014;8.352;2023-08-30T06:53:50;12.30;;;8.43;;
28760;SDS011;15917;50.014;8.352;2023-08-30T06:56:16;11.77;;;7.65;;
28760;SDS011;15917;50.014;8.352;2023-08-30T06:58:41;13.52;;;7.95;;
28760;SDS011;15917;50.014;8.352;2023-08-30T07:01:07;12.45;;;7.45;;
28760;SDS011;15917;50.014;8.352;2023-08-30T07:03:33;13.02;;;7.57;;
28760;SDS011;15917;50.014;8.352;2023-08-30T07:05:58;17.20;;;7.80;;
28760;SDS011;15917;50.014;8.352;2023-08-30T07:08:24;13.20;;;7.80;;
28760;SDS011;15917;50.014;8.352;2023-08-30T07:10:51;15.05;;;7.60;;
28760;SDS011;15917;50.014;8.352;2023-08-30T07:13:16;14.18;;;7.60;;
28760;SDS011;15917;50.014;8.352;2023-08-30T07:15:42;15.23;;;9.48;;
28760;SDS011;15917;50.014;8.352;2023-08-30T07:18:08;17.58;;;7.60;;
28760;SDS011;15917;50.014;8.352;2023-08-30T07:20:34;18.85;;;8.48;;
28760;SDS011;15917;50.014;8.352;2023-08-30T07:23:01;20.50;;;8.70;;
28760;SDS011;15917;50.014;8.352;2023-08-30T07:25:29;12.88;;;7.38;;
28760;SDS011;15917;50.014;8.352;2023-08-30T07:27:55;23.08;;;7.90;;
28760;SDS011;15917;50.014;8.352;2023-08-30T07:30:21;15.98;;;8.05;;
28760;SDS011;15917;50.014;8.352;2023-08-30T07:32:47;17.42;;;6.75;;
28760;SDS011;15917;50.014;8.352;2023-08-30T07:35:12;21.05;;;8.38;;
28760;SDS011;15917;50.014;8.352;2023-08-30T07:37:38;12.88;;;8.27;;
28760;SDS011;15917;50.014;8.352;2023-08-30T07:40:04;15.73;;;8.60;;
28760;SDS011;15917;50.014;8.352;2023-08-30T07:42:30;15.50;;;8.50;;
28760;SDS011;15917;50.014;8.352;2023-08-30T07:44:55;11.30;;;7.80;;
28760;SDS011;15917;50.014;8.352;2023-08-30T07:47:21;18.80;;;8.27;;
28760;SDS011;15917;50.014;8.352;2023-08-30T07:49:46;16.52;;;8.25;;
28760;SDS011;15917;50.014;8.352;2023-08-30T07:52:12;17.65;;;8.05;;
28760;SDS011;15917;50.014;8.352;2023-08-30T07:54:39;21.98;;;8.40;;
28760;SDS011;15917;50.014;8.352;2023-08-30T07:57:05;17.15;;;8.93;;
28760;SDS011;15917;50.014;8.352;2023-08-30T07:59:34;11.98;;;8.85;;
28760;SDS011;15917;50.014;8.352;2023-08-30T08:02:01;14.43;;;8.65;;
28760;SDS011;15917;50.014;8.352;2023-08-30T08:04:28;18.02;;;9.57;;
28760;SDS011;15917;50.014;8.352;2023-08-30T08:06:54;17.08;;;9.43;;
28760;SDS011;15917;50.014;8.352;2023-08-30T08:09:19;16.70;;;9.77;;
28760;SDS011;15917;50.014;8.352;2023-08-30T08:11:46;15.63;;;9.68;;
28760;SDS011;15917;50.014;8.352;2023-08-30T08:14:13;14.80;;;9.07;;
28760;SDS011;15917;50.014;8.352;2023-08-30T08:16:39;11.95;;;8.57;;
28760;SDS011;15917;50.014;8.352;2023-08-30T08:19:05;26.67;;;10.30;;
28760;SDS011;15917;50.014;8.352;2023-08-30T08:21:32;17.85;;;9.77;;
28760;SDS011;15917;50.014;8.352;2023-08-30T08:23:58;15.88;;;9.10;;
28760;SDS011;15917;50.014;8.352;2023-08-30T08:26:24;14.90;;;9.75;;
28760;SDS011;15917;50.014;8.352;2023-08-30T08:28:50;18.05;;;9.85;;
28760;SDS011;15917;50.014;8.352;2023-08-30T08:31:16;13.43;;;8.90;;
28760;SDS011;15917;50.014;8.352;2023-08-30T08:33:43;18.95;;;10.85;;
28760;SDS011;15917;50.014;8.352;2023-08-30T08:36:08;13.55;;;9.88;;
28760;SDS011;15917;50.014;8.352;2023-08-30T08:38:34;16.33;;;9.35;;
28760;SDS011;15917;50.014;8.352;2023-08-30T08:41:04;18.65;;;9.40;;
28760;SDS011;15917;50.014;8.352;2023-08-30T08:43:34;17.77;;;9.23;;
28760;SDS011;15917;50.014;8.352;2023-08-30T08:46:02;15.18;;;8.70;;
28760;SDS011;15917;50.014;8.352;2023-08-30T08:48:31;13.52;;;7.85;;
28760;SDS011;15917;50.014;8.352;2023-08-30T08:51:01;11.25;;;7.47;;
28760;SDS011;15917;50.014;8.352;2023-08-30T08:53:27;12.88;;;7.05;;
28760;SDS011;15917;50.014;8.352;2023-08-30T08:55:53;11.00;;;7.70;;
28760;SDS011;15917;50.014;8.352;2023-08-30T08:58:21;12.65;;;8.10;;
28760;SDS011;15917;50.014;8.352;2023-08-30T09:00:47;10.52;;;7.32;;
28760;SDS011;15917;50.014;8.352;2023-08-30T09:03:13;13.13;;;7.53;;
28760;SDS011;15917;50.014;8.352;2023-08-30T09:05:39;9.77;;;6.88;;
28760;SDS011;15917;50.014;8.352;2023-08-30T09:08:06;11.45;;;6.25;;
28760;SDS011;15917;50.014;8.352;2023-08-30T09:10:32;11.70;;;6.32;;
28760;SDS011;15917;50.014;8.352;2023-08-30T09:12:59;13.70;;;6.80;;
28760;SDS011;15917;50.014;8.352;2023-08-30T09:15:34;9.10;;;6.10;;
28760;SDS011;15917;50.014;8.352;2023-08-30T09:18:02;9.43;;;6.68;;
28760;SDS011;15917;50.014;8.352;2023-08-30T09:20:28;8.80;;;6.20;;
28760;SDS011;15917;50.014;8.352;2023-08-30T09:22:53;11.93;;;6.68;;
28760;SDS011;15917;50.014;8.352;2023-08-30T09:25:23;10.57;;;6.15;;
28760;SDS011;15917;50.014;8.352;2023-08-30T09:27:50;10.75;;;6.13;;
28760;SDS011;15917;50.014;8.352;2023-08-30T09:30:23;16.90;;;5.57;;
28760;SDS011;15917;50.014;8.352;2023-08-30T09:32:49;13.25;;;6.40;;
28760;SDS011;15917;50.014;8.352;2023-08-30T09:35:14;10.48;;;5.68;;
28760;SDS011;15917;50.014;8.352;2023-08-30T09:37:40;15.00;;;6.40;;
28760;SDS011;15917;50.014;8.352;2023-08-30T09:40:05;10.25;;;6.63;;
28760;SDS011;15917;50.014;8.352;2023-08-30T09:42:31;14.45;;;6.70;;
28760;SDS011;15917;50.014;8.352;2023-08-30T09:44:57;12.98;;;6.40;;
28760;SDS011;15917;50.014;8.352;2023-08-30T09:47:26;9.27;;;5.35;;
28760;SDS011;15917;50.014;8.352;2023-08-30T09:49:54;9.48;;;6.07;;
28760;SDS011;15917;50.014;8.352;2023-08-30T09:52:20;8.00;;;4.97;;
28760;SDS011;15917;50.014;8.352;2023-08-30T09:54:49;9.23;;;5.75;;
28760;SDS011;15917;50.014;8.352;2023-08-30T09:57:16;12.82;;;6.32;;
28760;SDS011;15917;50.014;8.352;2023-08-30T09:59:42;28.73;;;12.73;;
28760;SDS011;15917;50.014;8.352;2023-08-30T10:02:08;12.35;;;6.07;;
28760;SDS011;15917;50.014;8.352;2023-08-30T10:04:35;11.32;;;6.18;;
28760;SDS011;15917;50.014;8.352;2023-08-30T10:07:04;17.02;;;6.45;;
28760;SDS011;15917;50.014;8.352;2023-08-30T10:09:32;10.52;;;5.50;;
28760;SDS011;15917;50.014;8.352;2023-08-30T10:11:58;12.95;;;5.95;;
28760;SDS011;15917;50.014;8.352;2023-08-30T10:14:26;10.18;;;5.38;;
28760;SDS011;15917;50.014;8.352;2023-08-30T10:16:53;9.65;;;5.03;;
28760;SDS011;15917;50.014;8.352;2023-08-30T10:19:27;10.98;;;5.38;;
28760;SDS011;15917;50.014;8.352;2023-08-30T10:22:03;17.63;;;4.97;;
28760;SDS011;15917;50.014;8.352;2023-08-30T10:24:31;9.98;;;4.88;;
28760;SDS011;15917;50.014;8.352;2023-08-30T10:27:01;8.57;;;5.07;;
28760;SDS011;15917;50.014;8.352;2023-08-30T10:29:28;12.90;;;4.10;;
28760;SDS011;15917;50.014;8.352;2023-08-30T10:31:56;7.03;;;3.80;;
28760;SDS011;15917;50.014;8.352;2023-08-30T10:34:30;9.48;;;4.95;;
28760;SDS011;15917;50.014;8.352;2023-08-30T10:37:01;11.00;;;5.72;;
28760;SDS011;15917;50.014;8.352;2023-08-30T10:39:35;8.95;;;4.95;;
28760;SDS011;15917;50.014;8.352;2023-08-30T10:42:06;10.63;;;4.75;;
28760;SDS011;15917;50.014;8.352;2023-08-30T10:44:49;7.85;;;4.35;;
28760;SDS011;15917;50.014;8.352;2023-08-30T10:47:22;6.13;;;3.90;;
28760;SDS011;15917;50.014;8.352;2023-08-30T10:49:55;9.32;;;3.58;;
28760;SDS011;15917;50.014;8.352;2023-08-30T10:52:21;9.35;;;3.78;;
28760;SDS011;15917;50.014;8.352;2023-08-30T10:54:47;12.15;;;3.72;;
28760;SDS011;15917;50.014;8.352;2023-08-30T10:57:14;5.70;;;3.85;;
28760;SDS011;15917;50.014;8.352;2023-08-30T11:02:38;6.88;;;3.10;;
28760;SDS011;15917;50.014;8.352;2023-08-30T11:05:09;9.38;;;3.17;;
28760;SDS011;15917;50.014;8.352;2023-08-30T11:07:34;9.02;;;2.90;;
28760;SDS011;15917;50.014;8.352;2023-08-30T11:10:00;7.97;;;2.80;;
28760;SDS011;15917;50.014;8.352;2023-08-30T11:12:29;7.28;;;3.20;;
28760;SDS011;15917;50.014;8.352;2023-08-30T11:14:55;5.57;;;2.97;;
28760;SDS011;15917;50.014;8.352;2023-08-30T11:17:21;9.25;;;2.67;;
28760;SDS011;15917;50.014;8.352;2023-08-30T11:19:50;12.25;;;2.85;;
28760;SDS011;15917;50.014;8.352;2023-08-30T11:22:21;5.38;;;3.03;;
28760;SDS011;15917;50.014;8.352;2023-08-30T11:24:47;9.98;;;3.72;;
28760;SDS011;15917;50.014;8.352;2023-08-30T11:27:15;16.63;;;3.60;;
28760;SDS011;15917;50.014;8.352;2023-08-30T11:29:44;4.45;;;3.35;;
28760;SDS011;15917;50.014;8.352;2023-08-30T11:32:10;9.73;;;3.65;;
28760;SDS011;15917;50.014;8.352;2023-08-30T11:34:35;12.02;;;3.72;;
28760;SDS011;15917;50.014;8.352;2023-08-30T11:37:01;13.98;;;4.00;;
28760;SDS011;15917;50.014;8.352;2023-08-30T11:39:27;8.77;;;4.28;;
28760;SDS011;15917;50.014;8.352;2023-08-30T11:41:54;11.80;;;4.88;;
28760;SDS011;15917;50.014;8.352;2023-08-30T11:44:22;8.60;;;4.30;;
28760;SDS011;15917;50.014;8.352;2023-08-30T11:46:48;6.93;;;4.07;;
28760;SDS011;15917;50.014;8.352;2023-08-30T11:49:17;7.75;;;2.90;;
28760;SDS011;15917;50.014;8.352;2023-08-30T11:51:43;14.60;;;4.43;;
28760;SDS011;15917;50.014;8.352;2023-08-30T11:54:09;9.75;;;2.38;;
28760;SDS011;15917;50.014;8.352;2023-08-30T11:56:35;8.35;;;2.80;;
28760;SDS011;15917;50.014;8.352;2023-08-30T11:59:01;13.52;;;2.55;;
28760;SDS011;15917;50.014;8.352;2023-08-30T12:01:29;9.25;;;2.63;;
28760;SDS011;15917;50.014;8.352;2023-08-30T12:03:55;19.58;;;4.60;;
28760;SDS011;15917;50.014;8.352;2023-08-30T12:06:22;5.78;;;3.20;;
28760;SDS011;15917;50.014;8.352;2023-08-30T12:11:22;6.88;;;2.67;;
28760;SDS011;15917;50.014;8.352;2023-08-30T12:13:48;7.63;;;2.97;;
28760;SDS011;15917;50.014;8.352;2023-08-30T12:16:17;5.53;;;3.22;;
28760;SDS011;15917;50.014;8.352;2023-08-30T12:18:43;5.15;;;2.92;;
28760;SDS011;15917;50.014;8.352;2023-08-30T12:21:09;10.35;;;4.25;;
28760;SDS011;15917;50.014;8.352;2023-08-30T12:23:35;8.63;;;3.25;;
28760;SDS011;15917;50.014;8.352;2023-08-30T12:28:34;6.43;;;2.47;;
28760;SDS011;15917;50.014;8.352;2023-08-30T12:31:04;6.00;;;2.95;;
28760;SDS011;15917;50.014;8.352;2023-08-30T12:33:30;5.63;;;2.72;;
28760;SDS011;15917;50.014;8.352;2023-08-30T12:35:56;6.28;;;2.70;;
28760;SDS011;15917;50.014;8.352;2023-08-30T12:38:23;3.75;;;2.00;;
28760;SDS011;15917;50.014;8.352;2023-08-30T12:40:53;4.07;;;2.78;;
28760;SDS011;15917;50.014;8.352;2023-08-30T12:43:19;7.35;;;2.67;;
28760;SDS011;15917;50.014;8.352;2023-08-30T12:45:46;5.88;;;3.22;;
28760;SDS011;15917;50.014;8.352;2023-08-30T12:48:14;3.70;;;2.60;;
28760;SDS011;15917;50.014;8.352;2023-08-30T12:50:41;5.45;;;2.60;;
28760;SDS011;15917;50.014;8.352;2023-08-30T12:53:08;4.07;;;2.92;;
28760;SDS011;15917;50.014;8.352;2023-08-30T12:55:36;4.55;;;2.97;;
28760;SDS011;15917;50.014;8.352;2023-08-30T12:58:05;5.82;;;2.97;;
28760;SDS011;15917;50.014;8.352;2023-08-30T13:00:34;10.57;;;4.28;;
28760;SDS011;15917;50.014;8.352;2023-08-30T13:03:00;6.18;;;2.78;;
28760;SDS011;15917;50.014;8.352;2023-08-30T13:05:27;7.80;;;3.10;;
28760;SDS011;15917;50.014;8.352;2023-08-30T13:07:53;4.35;;;3.10;;
28760;SDS011;15917;50.014;8.352;2023-08-30T13:10:19;4.85;;;2.90;;
28760;SDS011;15917;50.014;8.352;2023-08-30T13:12:44;4.97;;;3.15;;
28760;SDS011;15917;50.014;8.352;2023-08-30T13:15:10;5.35;;;2.55;;
28760;SDS011;15917;50.014;8.352;2023-08-30T13:17:36;5.72;;;2.78;;
28760;SDS011;15917;50.014;8.352;2023-08-30T13:20:02;5.32;;;3.13;;
28760;SDS011;15917;50.014;8.352;2023-08-30T13:22:28;8.40;;;3.25;;
28760;SDS011;15917;50.014;8.352;2023-08-30T13:24:54;7.20;;;3.00;;
28760;SDS011;15917;50.014;8.352;2023-08-30T13:27:20;5.85;;;3.00;;
28760;SDS011;15917;50.014;8.352;2023-08-30T13:29:46;6.40;;;3.50;;
28760;SDS011;15917;50.014;8.352;2023-08-30T13:32:12;5.10;;;2.85;;
28760;SDS011;15917;50.014;8.352;2023-08-30T13:34:37;10.75;;;3.85;;
28760;SDS011;15917;50.014;8.352;2023-08-30T13:37:10;5.60;;;3.83;;
28760;SDS011;15917;50.014;8.352;2023-08-30T13:39:37;7.88;;;3.72;;
28760;SDS011;15917;50.014;8.352;2023-08-30T13:42:06;5.88;;;3.20;;
28760;SDS011;15917;50.014;8.352;2023-08-30T13:44:32;7.75;;;3.65;;
28760;SDS011;15917;50.014;8.352;2023-08-30T13:47:01;5.25;;;3.00;;
28760;SDS011;15917;50.014;8.352;2023-08-30T13:49:26;5.78;;;3.38;;
28760;SDS011;15917;50.014;8.352;2023-08-30T13:51:52;7.13;;;3.30;;
28760;SDS011;15917;50.014;8.352;2023-08-30T13:54:18;6.43;;;3.20;;
28760;SDS011;15917;50.014;8.352;2023-08-30T13:56:44;6.32;;;3.20;;
28760;SDS011;15917;50.014;8.352;2023-08-30T13:59:10;7.72;;;3.47;;
28760;SDS011;15917;50.014;8.352;2023-08-30T14:01:35;8.60;;;3.83;;
28760;SDS011;15917;50.014;8.352;2023-08-30T14:04:01;5.13;;;3.10;;
28760;SDS011;15917;50.014;8.352;2023-08-30T14:06:29;5.28;;;3.42;;
28760;SDS011;15917;50.014;8.352;2023-08-30T14:08:56;6.35;;;3.42;;
28760;SDS011;15917;50.014;8.352;2023-08-30T14:11:22;5.05;;;3.50;;
28760;SDS011;15917;50.014;8.352;2023-08-30T14:13:47;8.23;;;3.30;;
28760;SDS011;15917;50.014;8.352;2023-08-30T14:16:13;7.45;;;3.70;;
28760;SDS011;15917;50.014;8.352;2023-08-30T14:18:39;5.30;;;3.17;;
28760;SDS011;15917;50.014;8.352;2023-08-30T14:21:05;6.68;;;2.75;;
28760;SDS011;15917;50.014;8.352;2023-08-30T14:23:31;5.63;;;3.03;;
28760;SDS011;15917;50.014;8.352;2023-08-30T14:25:57;7.40;;;2.88;;
28760;SDS011;15917;50.014;8.352;2023-08-30T14:28:28;3.85;;;2.40;;
28760;SDS011;15917;50.014;8.352;2023-08-30T14:30:54;3.95;;;2.45;;
28760;SDS011;15917;50.014;8.352;2023-08-30T14:33:20;9.57;;;2.72;;
28760;SDS011;15917;50.014;8.352;2023-08-30T14:35:46;7.45;;;2.63;;
28760;SDS011;15917;50.014;8.352;2023-08-30T14:38:12;7.25;;;2.95;;
28760;SDS011;15917;50.014;8.352;2023-08-30T14:40:37;5.75;;;2.50;;
28760;SDS011;15917;50.014;8.352;2023-08-30T14:43:03;5.72;;;2.80;;
28760;SDS011;15917;50.014;8.352;2023-08-30T14:45:29;8.50;;;3.00;;
28760;SDS011;15917;50.014;8.352;2023-08-30T14:47:55;4.57;;;2.50;;
28760;SDS011;15917;50.014;8.352;2023-08-30T14:50:21;2.95;;;2.30;;
28760;SDS011;15917;50.014;8.352;2023-08-30T14:52:46;9.20;;;2.55;;
28760;SDS011;15917;50.014;8.352;2023-08-30T14:55:12;6.85;;;2.78;;
28760;SDS011;15917;50.014;8.352;2023-08-30T14:57:38;5.00;;;2.63;;
28760;SDS011;15917;50.014;8.352;2023-08-30T15:00:04;7.75;;;3.00;;